sensor_id;sensor_type;location;lat;lon;timestamp;temperature;humidity
1329;DHT22;658;48.820;9.354;2022-08-02T00:03:43;26.30;55.30
1329;DHT22;658;48.820;9.354;2022-08-02T00:07:43;26.30;55.30
1329;DHT22;658;48.820;9.354;2022-08-02T00:11:44;26.30;55.30
1329;DHT22;658;48.820;9.354;2022-08-02T00:15:45;26.30;55.40
1329;DHT22;658;48.820;9.354;2022-08-02T00:19:45;26.30;55.40
1329;DHT22;658;48.820;9.354;2022-08-02T00:23:46;26.30;55.30
1329;DHT22;658;48.820;9.354;2022-08-02T00:27:47;26.30;55.30
1329;DHT22;658;48.820;9.354;2022-08-02T00:31:47;26.30;55.30
1329;DHT22;658;48.820;9.354;2022-08-02T00:35:48;26.30;55.30
1329;DHT22;658;48.820;9.354;2022-08-02T00:39:49;26.30;55.30
1329;DHT22;658;48.820;9.354;2022-08-02T00:43:50;26.30;55.30
1329;DHT22;658;48.820;9.354;2022-08-02T00:47:51;26.20;55.30
1329;DHT22;658;48.820;9.354;2022-08-02T00:51:52;26.30;55.40
1329;DHT22;658;48.820;9.354;2022-08-02T00:55:53;26.20;55.20
1329;DHT22;658;48.820;9.354;2022-08-02T00:59:53;26.20;55.30
1329;DHT22;658;48.820;9.354;2022-08-02T01:03:54;26.20;55.40
1329;DHT22;658;48.820;9.354;2022-08-02T01:07:54;26.20;55.40
1329;DHT22;658;48.820;9.354;2022-08-02T01:11:55;26.20;55.40
1329;DHT22;658;48.820;9.354;2022-08-02T01:16:09;26.20;55.40
1329;DHT22;658;48.820;9.354;2022-08-02T01:29:25;26.10;55.40
1329;DHT22;658;48.820;9.354;2022-08-02T01:33:34;26.10;55.30
1329;DHT22;658;48.820;9.354;2022-08-02T01:41:43;26.10;55.40
1329;DHT22;658;48.820;9.354;2022-08-02T01:45:44;26.10;55.40
1329;DHT22;658;48.820;9.354;2022-08-02T01:49:48;26.10;55.40
1329;DHT22;658;48.820;9.354;2022-08-02T01:53:50;26.10;55.50
1329;DHT22;658;48.820;9.354;2022-08-02T01:57:57;26.10;55.40
1329;DHT22;658;48.820;9.354;2022-08-02T02:01:58;26.10;55.40
1329;DHT22;658;48.820;9.354;2022-08-02T02:06:01;26.00;55.40
1329;DHT22;658;48.820;9.354;2022-08-02T02:10:02;26.10;55.40
1329;DHT22;658;48.820;9.354;2022-08-02T02:14:04;26.00;55.40
1329;DHT22;658;48.820;9.354;2022-08-02T02:18:07;26.00;55.40
1329;DHT22;658;48.820;9.354;2022-08-02T02:22:09;26.00;55.30
1329;DHT22;658;48.820;9.354;2022-08-02T02:26:12;26.00;55.30
1329;DHT22;658;48.820;9.354;2022-08-02T02:30:15;26.00;55.30
1329;DHT22;658;48.820;9.354;2022-08-02T02:34:24;26.00;55.40
1329;DHT22;658;48.820;9.354;2022-08-02T02:38:27;25.90;55.40
1329;DHT22;658;48.820;9.354;2022-08-02T02:42:31;25.90;55.40
1329;DHT22;658;48.820;9.354;2022-08-02T02:46:33;25.90;55.30
1329;DHT22;658;48.820;9.354;2022-08-02T02:50:35;25.90;55.40
1329;DHT22;658;48.820;9.354;2022-08-02T02:54:37;25.90;55.40
1329;DHT22;658;48.820;9.354;2022-08-02T02:58:38;25.90;55.50
1329;DHT22;658;48.820;9.354;2022-08-02T03:02:42;25.90;55.50
1329;DHT22;658;48.820;9.354;2022-08-02T03:06:43;25.90;55.50
1329;DHT22;658;48.820;9.354;2022-08-02T03:10:44;25.90;55.50
1329;DHT22;658;48.820;9.354;2022-08-02T03:14:45;25.90;55.50
1329;DHT22;658;48.820;9.354;2022-08-02T03:18:45;25.90;55.50
1329;DHT22;658;48.820;9.354;2022-08-02T03:22:46;25.90;55.50
1329;DHT22;658;48.820;9.354;2022-08-02T03:26:47;25.90;55.50
1329;DHT22;658;48.820;9.354;2022-08-02T03:30:48;25.90;55.60
1329;DHT22;658;48.820;9.354;2022-08-02T03:34:49;25.80;55.60
1329;DHT22;658;48.820;9.354;2022-08-02T03:38:51;25.80;55.70
1329;DHT22;658;48.820;9.354;2022-08-02T03:42:52;25.80;55.60
1329;DHT22;658;48.820;9.354;2022-08-02T03:46:53;25.80;55.50
1329;DHT22;658;48.820;9.354;2022-08-02T03:50:54;25.90;55.70
1329;DHT22;658;48.820;9.354;2022-08-02T03:54:55;25.80;55.60
1329;DHT22;658;48.820;9.354;2022-08-02T03:59:07;25.80;55.70
1329;DHT22;658;48.820;9.354;2022-08-02T04:03:08;25.80;55.60
1329;DHT22;658;48.820;9.354;2022-08-02T04:07:09;25.80;55.60
1329;DHT22;658;48.820;9.354;2022-08-02T04:11:09;25.80;55.70
1329;DHT22;658;48.820;9.354;2022-08-02T04:15:39;25.80;55.70
1329;DHT22;658;48.820;9.354;2022-08-02T04:19:49;25.80;55.70
1329;DHT22;658;48.820;9.354;2022-08-02T04:23:53;25.80;55.70
1329;DHT22;658;48.820;9.354;2022-08-02T04:27:55;25.80;55.70
1329;DHT22;658;48.820;9.354;2022-08-02T04:31:57;25.80;55.70
1329;DHT22;658;48.820;9.354;2022-08-02T04:35:58;25.70;55.60
1329;DHT22;658;48.820;9.354;2022-08-02T04:39:59;25.70;55.70
1329;DHT22;658;48.820;9.354;2022-08-02T04:44:00;25.80;55.90
1329;DHT22;658;48.820;9.354;2022-08-02T04:48:00;25.70;55.90
1329;DHT22;658;48.820;9.354;2022-08-02T04:52:01;25.70;55.90
1329;DHT22;658;48.820;9.354;2022-08-02T04:56:02;25.70;56.00
1329;DHT22;658;48.820;9.354;2022-08-02T05:00:04;25.70;56.10
1329;DHT22;658;48.820;9.354;2022-08-02T05:04:05;25.70;56.20
1329;DHT22;658;48.820;9.354;2022-08-02T05:08:05;25.70;56.20
1329;DHT22;658;48.820;9.354;2022-08-02T05:12:06;25.70;56.20
1329;DHT22;658;48.820;9.354;2022-08-02T05:16:07;25.60;56.20
1329;DHT22;658;48.820;9.354;2022-08-02T05:20:08;25.70;56.30
1329;DHT22;658;48.820;9.354;2022-08-02T05:24:09;25.70;56.30
1329;DHT22;658;48.820;9.354;2022-08-02T05:28:10;25.70;56.40
1329;DHT22;658;48.820;9.354;2022-08-02T05:32:11;25.70;56.40
1329;DHT22;658;48.820;9.354;2022-08-02T05:36:11;25.70;56.50
1329;DHT22;658;48.820;9.354;2022-08-02T05:40:12;25.70;56.50
1329;DHT22;658;48.820;9.354;2022-08-02T05:44:13;25.70;56.50
1329;DHT22;658;48.820;9.354;2022-08-02T05:48:13;25.60;56.60
1329;DHT22;658;48.820;9.354;2022-08-02T05:52:16;25.60;56.70
1329;DHT22;658;48.820;9.354;2022-08-02T05:56:32;25.60;56.60
1329;DHT22;658;48.820;9.354;2022-08-02T06:00:34;25.60;56.80
1329;DHT22;658;48.820;9.354;2022-08-02T06:05:03;25.70;56.90
1329;DHT22;658;48.820;9.354;2022-08-02T06:09:11;25.70;56.90
1329;DHT22;658;48.820;9.354;2022-08-02T06:13:14;25.70;57.00
1329;DHT22;658;48.820;9.354;2022-08-02T06:17:16;25.70;57.00
1329;DHT22;658;48.820;9.354;2022-08-02T06:21:17;25.70;57.10
1329;DHT22;658;48.820;9.354;2022-08-02T06:25:21;25.70;57.20
1329;DHT22;658;48.820;9.354;2022-08-02T06:29:23;25.70;57.10
1329;DHT22;658;48.820;9.354;2022-08-02T06:33:24;25.70;57.10
1329;DHT22;658;48.820;9.354;2022-08-02T06:37:37;25.70;57.20
1329;DHT22;658;48.820;9.354;2022-08-02T06:41:41;25.70;57.50
1329;DHT22;658;48.820;9.354;2022-08-02T06:45:43;25.70;57.60
1329;DHT22;658;48.820;9.354;2022-08-02T06:49:44;25.70;57.50
1329;DHT22;658;48.820;9.354;2022-08-02T06:53:46;25.70;57.40
1329;DHT22;658;48.820;9.354;2022-08-02T06:57:47;25.70;57.50
1329;DHT22;658;48.820;9.354;2022-08-02T07:01:48;25.70;57.50
1329;DHT22;658;48.820;9.354;2022-08-02T07:05:48;25.70;57.40
1329;DHT22;658;48.820;9.354;2022-08-02T07:09:49;25.80;57.40
1329;DHT22;658;48.820;9.354;2022-08-02T07:13:50;25.70;57.20
1329;DHT22;658;48.820;9.354;2022-08-02T07:17:51;25.70;57.10
1329;DHT22;658;48.820;9.354;2022-08-02T07:21:51;25.70;57.10
1329;DHT22;658;48.820;9.354;2022-08-02T07:25:52;25.70;57.00
1329;DHT22;658;48.820;9.354;2022-08-02T07:29:53;25.70;57.00
1329;DHT22;658;48.820;9.354;2022-08-02T07:33:54;25.80;57.00
1329;DHT22;658;48.820;9.354;2022-08-02T07:37:54;25.80;57.00
1329;DHT22;658;48.820;9.354;2022-08-02T07:41:56;25.80;56.90
1329;DHT22;658;48.820;9.354;2022-08-02T07:45:56;25.80;56.80
1329;DHT22;658;48.820;9.354;2022-08-02T07:49:57;25.80;56.80
1329;DHT22;658;48.820;9.354;2022-08-02T07:53:57;25.90;56.90
1329;DHT22;658;48.820;9.354;2022-08-02T07:57:58;25.90;56.80
1329;DHT22;658;48.820;9.354;2022-08-02T08:01:59;25.90;56.80
1329;DHT22;658;48.820;9.354;2022-08-02T08:06:00;25.90;56.80
1329;DHT22;658;48.820;9.354;2022-08-02T08:10:01;26.00;56.80
1329;DHT22;658;48.820;9.354;2022-08-02T08:14:02;25.90;56.60
1329;DHT22;658;48.820;9.354;2022-08-02T08:18:03;26.00;56.60
1329;DHT22;658;48.820;9.354;2022-08-02T08:22:04;26.00;56.60
1329;DHT22;658;48.820;9.354;2022-08-02T08:26:05;26.00;56.60
1329;DHT22;658;48.820;9.354;2022-08-02T08:30:06;26.00;56.50
1329;DHT22;658;48.820;9.354;2022-08-02T08:34:07;26.10;56.50
1329;DHT22;658;48.820;9.354;2022-08-02T08:38:08;26.10;56.50
1329;DHT22;658;48.820;9.354;2022-08-02T08:42:08;26.10;56.50
1329;DHT22;658;48.820;9.354;2022-08-02T08:46:25;26.10;56.40
1329;DHT22;658;48.820;9.354;2022-08-02T08:50:29;26.10;56.30
1329;DHT22;658;48.820;9.354;2022-08-02T08:54:34;26.20;56.30
1329;DHT22;658;48.820;9.354;2022-08-02T08:58:47;26.20;56.20
1329;DHT22;658;48.820;9.354;2022-08-02T09:08:00;26.30;56.20
1329;DHT22;658;48.820;9.354;2022-08-02T09:12:14;26.30;56.10
1329;DHT22;658;48.820;9.354;2022-08-02T09:16:35;26.30;56.10
1329;DHT22;658;48.820;9.354;2022-08-02T09:21:00;26.30;56.00
1329;DHT22;658;48.820;9.354;2022-08-02T09:25:20;26.30;56.00
1329;DHT22;658;48.820;9.354;2022-08-02T09:29:39;26.30;55.90
1329;DHT22;658;48.820;9.354;2022-08-02T09:33:46;26.40;55.80
1329;DHT22;658;48.820;9.354;2022-08-02T09:42:37;26.40;55.60
1329;DHT22;658;48.820;9.354;2022-08-02T09:47:29;26.40;55.40
1329;DHT22;658;48.820;9.354;2022-08-02T09:51:59;26.50;55.30
1329;DHT22;658;48.820;9.354;2022-08-02T10:00:56;26.50;55.10
1329;DHT22;658;48.820;9.354;2022-08-02T10:05:55;26.60;55.00
1329;DHT22;658;48.820;9.354;2022-08-02T10:10:00;26.60;54.90
1329;DHT22;658;48.820;9.354;2022-08-02T10:14:29;26.60;54.90
1329;DHT22;658;48.820;9.354;2022-08-02T10:18:42;26.60;54.80
1329;DHT22;658;48.820;9.354;2022-08-02T10:22:46;26.70;54.80
1329;DHT22;658;48.820;9.354;2022-08-02T10:31:32;26.70;54.60
1329;DHT22;658;48.820;9.354;2022-08-02T11:06:33;26.90;53.60
1329;DHT22;658;48.820;9.354;2022-08-02T11:10:38;26.90;53.40
1329;DHT22;658;48.820;9.354;2022-08-02T11:14:44;26.90;53.30
1329;DHT22;658;48.820;9.354;2022-08-02T11:22:53;26.90;52.90
1329;DHT22;658;48.820;9.354;2022-08-02T11:26:56;27.00;52.80
1329;DHT22;658;48.820;9.354;2022-08-02T11:30:59;27.00;52.60
1329;DHT22;658;48.820;9.354;2022-08-02T11:35:00;27.00;52.30
1329;DHT22;658;48.820;9.354;2022-08-02T11:39:13;27.00;52.10
1329;DHT22;658;48.820;9.354;2022-08-02T11:43:19;27.00;52.00
1329;DHT22;658;48.820;9.354;2022-08-02T11:47:20;27.10;52.00
1329;DHT22;658;48.820;9.354;2022-08-02T11:51:21;27.10;51.90
1329;DHT22;658;48.820;9.354;2022-08-02T11:55:29;27.10;51.70
1329;DHT22;658;48.820;9.354;2022-08-02T11:59:30;27.10;51.60
1329;DHT22;658;48.820;9.354;2022-08-02T12:03:37;27.10;51.50
1329;DHT22;658;48.820;9.354;2022-08-02T12:07:38;27.10;51.30
1329;DHT22;658;48.820;9.354;2022-08-02T12:11:39;27.20;51.30
1329;DHT22;658;48.820;9.354;2022-08-02T12:15:44;27.20;51.20
1329;DHT22;658;48.820;9.354;2022-08-02T12:19:47;27.20;51.20
1329;DHT22;658;48.820;9.354;2022-08-02T12:23:47;27.20;51.00
1329;DHT22;658;48.820;9.354;2022-08-02T12:27:48;27.20;50.90
1329;DHT22;658;48.820;9.354;2022-08-02T12:31:49;27.30;51.00
1329;DHT22;658;48.820;9.354;2022-08-02T12:35:49;27.30;50.90
1329;DHT22;658;48.820;9.354;2022-08-02T12:39:50;27.30;51.30
1329;DHT22;658;48.820;9.354;2022-08-02T12:43:54;27.30;50.60
1329;DHT22;658;48.820;9.354;2022-08-02T12:47:56;27.30;50.50
1329;DHT22;658;48.820;9.354;2022-08-02T12:51:58;27.30;50.40
1329;DHT22;658;48.820;9.354;2022-08-02T12:55:58;27.40;50.40
1329;DHT22;658;48.820;9.354;2022-08-02T13:00:00;27.40;50.20
1329;DHT22;658;48.820;9.354;2022-08-02T13:04:01;27.40;50.10
1329;DHT22;658;48.820;9.354;2022-08-02T13:08:03;27.40;50.00
1329;DHT22;658;48.820;9.354;2022-08-02T13:12:05;27.40;50.00
1329;DHT22;658;48.820;9.354;2022-08-02T13:16:06;27.40;49.90
1329;DHT22;658;48.820;9.354;2022-08-02T13:20:09;27.40;49.60
1329;DHT22;658;48.820;9.354;2022-08-02T13:24:10;27.40;49.50
1329;DHT22;658;48.820;9.354;2022-08-02T13:28:13;27.50;49.40
1329;DHT22;658;48.820;9.354;2022-08-02T13:32:15;27.50;49.20
1329;DHT22;658;48.820;9.354;2022-08-02T13:36:15;27.50;49.10
1329;DHT22;658;48.820;9.354;2022-08-02T13:40:16;27.50;49.00
1329;DHT22;658;48.820;9.354;2022-08-02T13:44:17;27.50;48.90
1329;DHT22;658;48.820;9.354;2022-08-02T13:48:17;27.50;48.70
1329;DHT22;658;48.820;9.354;2022-08-02T13:52:19;27.50;48.70
1329;DHT22;658;48.820;9.354;2022-08-02T13:56:20;27.50;48.60
1329;DHT22;658;48.820;9.354;2022-08-02T14:00:21;27.60;48.40
1329;DHT22;658;48.820;9.354;2022-08-02T14:04:22;27.60;48.20
1329;DHT22;658;48.820;9.354;2022-08-02T14:08:22;27.60;48.10
1329;DHT22;658;48.820;9.354;2022-08-02T14:12:23;27.60;48.10
1329;DHT22;658;48.820;9.354;2022-08-02T14:16:24;27.60;48.00
1329;DHT22;658;48.820;9.354;2022-08-02T14:20:24;27.60;47.90
1329;DHT22;658;48.820;9.354;2022-08-02T14:24:25;27.60;47.90
1329;DHT22;658;48.820;9.354;2022-08-02T14:28:25;27.60;47.70
1329;DHT22;658;48.820;9.354;2022-08-02T14:32:26;27.60;47.60
1329;DHT22;658;48.820;9.354;2022-08-02T14:36:27;27.70;47.60
1329;DHT22;658;48.820;9.354;2022-08-02T14:40:27;27.70;47.50
1329;DHT22;658;48.820;9.354;2022-08-02T14:44:28;27.70;47.30
1329;DHT22;658;48.820;9.354;2022-08-02T14:48:29;27.70;47.10
1329;DHT22;658;48.820;9.354;2022-08-02T14:52:29;27.70;47.00
1329;DHT22;658;48.820;9.354;2022-08-02T14:56:30;27.70;46.70
1329;DHT22;658;48.820;9.354;2022-08-02T15:00:31;27.70;46.70
1329;DHT22;658;48.820;9.354;2022-08-02T15:04:31;27.70;46.60
1329;DHT22;658;48.820;9.354;2022-08-02T15:08:33;27.80;46.40
1329;DHT22;658;48.820;9.354;2022-08-02T15:12:34;27.80;46.20
1329;DHT22;658;48.820;9.354;2022-08-02T15:16:34;27.80;46.10
1329;DHT22;658;48.820;9.354;2022-08-02T15:20:35;27.70;45.90
1329;DHT22;658;48.820;9.354;2022-08-02T15:24:36;27.80;45.50
1329;DHT22;658;48.820;9.354;2022-08-02T15:28:36;27.80;45.90
1329;DHT22;658;48.820;9.354;2022-08-02T15:32:37;27.80;45.60
1329;DHT22;658;48.820;9.354;2022-08-02T15:36:38;27.80;45.60
1329;DHT22;658;48.820;9.354;2022-08-02T15:40:39;27.80;45.50
1329;DHT22;658;48.820;9.354;2022-08-02T15:44:39;27.80;45.50
1329;DHT22;658;48.820;9.354;2022-08-02T15:48:41;27.80;45.40
1329;DHT22;658;48.820;9.354;2022-08-02T15:52:42;27.80;44.70
1329;DHT22;658;48.820;9.354;2022-08-02T15:56:43;27.80;44.90
1329;DHT22;658;48.820;9.354;2022-08-02T16:00:43;27.80;44.40
1329;DHT22;658;48.820;9.354;2022-08-02T16:04:45;27.80;44.20
1329;DHT22;658;48.820;9.354;2022-08-02T16:08:46;27.80;44.20
1329;DHT22;658;48.820;9.354;2022-08-02T16:12:47;27.80;44.60
1329;DHT22;658;48.820;9.354;2022-08-02T16:16:47;27.80;44.20
1329;DHT22;658;48.820;9.354;2022-08-02T16:20:48;27.80;43.70
1329;DHT22;658;48.820;9.354;2022-08-02T16:24:48;27.80;43.60
1329;DHT22;658;48.820;9.354;2022-08-02T16:28:51;27.80;43.40
1329;DHT22;658;48.820;9.354;2022-08-02T16:32:51;27.90;43.50
1329;DHT22;658;48.820;9.354;2022-08-02T16:36:52;27.80;43.30
1329;DHT22;658;48.820;9.354;2022-08-02T16:40:53;27.80;43.30
1329;DHT22;658;48.820;9.354;2022-08-02T16:44:54;27.80;43.40
1329;DHT22;658;48.820;9.354;2022-08-02T16:48:55;27.90;43.50
1329;DHT22;658;48.820;9.354;2022-08-02T16:52:56;27.90;43.40
1329;DHT22;658;48.820;9.354;2022-08-02T16:56:57;27.90;43.30
1329;DHT22;658;48.820;9.354;2022-08-02T17:00:57;27.90;43.30
1329;DHT22;658;48.820;9.354;2022-08-02T17:04:58;27.90;43.20
1329;DHT22;658;48.820;9.354;2022-08-02T17:08:59;27.90;43.10
1329;DHT22;658;48.820;9.354;2022-08-02T17:13:03;27.90;43.10
1329;DHT22;658;48.820;9.354;2022-08-02T17:17:04;27.90;43.10
1329;DHT22;658;48.820;9.354;2022-08-02T17:21:04;27.90;42.90
1329;DHT22;658;48.820;9.354;2022-08-02T17:25:07;27.90;43.10
1329;DHT22;658;48.820;9.354;2022-08-02T17:29:08;27.90;43.00
1329;DHT22;658;48.820;9.354;2022-08-02T17:33:09;27.90;43.10
1329;DHT22;658;48.820;9.354;2022-08-02T17:37:10;27.90;43.00
1329;DHT22;658;48.820;9.354;2022-08-02T17:41:10;27.90;43.00
1329;DHT22;658;48.820;9.354;2022-08-02T17:45:11;28.00;43.10
1329;DHT22;658;48.820;9.354;2022-08-02T17:49:12;27.90;43.20
1329;DHT22;658;48.820;9.354;2022-08-02T17:53:16;27.90;43.30
1329;DHT22;658;48.820;9.354;2022-08-02T17:57:18;28.00;43.50
1329;DHT22;658;48.820;9.354;2022-08-02T18:01:18;27.90;43.50
1329;DHT22;658;48.820;9.354;2022-08-02T18:05:19;27.90;43.60
1329;DHT22;658;48.820;9.354;2022-08-02T18:09:20;27.90;43.70
1329;DHT22;658;48.820;9.354;2022-08-02T18:13:21;27.90;43.90
1329;DHT22;658;48.820;9.354;2022-08-02T18:17:21;27.90;44.10
1329;DHT22;658;48.820;9.354;2022-08-02T18:21:22;27.90;44.40
1329;DHT22;658;48.820;9.354;2022-08-02T18:25:23;27.90;44.60
1329;DHT22;658;48.820;9.354;2022-08-02T18:29:24;27.90;44.60
1329;DHT22;658;48.820;9.354;2022-08-02T18:33:25;27.90;44.90
1329;DHT22;658;48.820;9.354;2022-08-02T18:37:26;27.90;45.20
1329;DHT22;658;48.820;9.354;2022-08-02T18:41:26;27.90;45.60
1329;DHT22;658;48.820;9.354;2022-08-02T18:45:27;27.90;45.80
1329;DHT22;658;48.820;9.354;2022-08-02T18:49:28;27.90;46.20
1329;DHT22;658;48.820;9.354;2022-08-02T18:53:30;27.90;46.20
1329;DHT22;658;48.820;9.354;2022-08-02T18:57:30;27.80;46.30
1329;DHT22;658;48.820;9.354;2022-08-02T19:01:31;27.70;46.70
1329;DHT22;658;48.820;9.354;2022-08-02T19:05:32;27.70;47.00
1329;DHT22;658;48.820;9.354;2022-08-02T19:09:33;27.70;47.00
1329;DHT22;658;48.820;9.354;2022-08-02T19:13:33;27.60;47.10
1329;DHT22;658;48.820;9.354;2022-08-02T19:17:34;27.60;47.20
1329;DHT22;658;48.820;9.354;2022-08-02T19:21:35;27.60;47.50
1329;DHT22;658;48.820;9.354;2022-08-02T19:25:36;27.50;47.70
1329;DHT22;658;48.820;9.354;2022-08-02T19:29:38;27.60;47.70
1329;DHT22;658;48.820;9.354;2022-08-02T19:33:39;27.60;48.30
1329;DHT22;658;48.820;9.354;2022-08-02T19:37:39;27.60;47.90
1329;DHT22;658;48.820;9.354;2022-08-02T19:41:42;27.60;47.90
1329;DHT22;658;48.820;9.354;2022-08-02T19:45:43;27.60;47.90
1329;DHT22;658;48.820;9.354;2022-08-02T19:49:45;27.60;48.00
1329;DHT22;658;48.820;9.354;2022-08-02T19:53:46;27.60;48.00
1329;DHT22;658;48.820;9.354;2022-08-02T19:57:47;27.60;48.10
1329;DHT22;658;48.820;9.354;2022-08-02T20:01:48;27.60;48.30
1329;DHT22;658;48.820;9.354;2022-08-02T20:05:49;27.60;48.40
1329;DHT22;658;48.820;9.354;2022-08-02T20:09:50;27.60;48.40
1329;DHT22;658;48.820;9.354;2022-08-02T20:13:52;27.60;48.50
1329;DHT22;658;48.820;9.354;2022-08-02T20:17:52;27.60;48.70
1329;DHT22;658;48.820;9.354;2022-08-02T20:21:53;27.60;48.70
1329;DHT22;658;48.820;9.354;2022-08-02T20:25:54;27.50;48.80
1329;DHT22;658;48.820;9.354;2022-08-02T20:29:54;27.50;49.40
1329;DHT22;658;48.820;9.354;2022-08-02T20:33:55;27.50;48.90
1329;DHT22;658;48.820;9.354;2022-08-02T20:37:56;27.50;49.00
1329;DHT22;658;48.820;9.354;2022-08-02T20:41:56;27.50;49.10
1329;DHT22;658;48.820;9.354;2022-08-02T20:45:58;27.50;49.20
1329;DHT22;658;48.820;9.354;2022-08-02T20:49:59;27.50;49.20
1329;DHT22;658;48.820;9.354;2022-08-02T20:54:18;27.40;49.20
1329;DHT22;658;48.820;9.354;2022-08-02T20:58:19;27.40;49.30
1329;DHT22;658;48.820;9.354;2022-08-02T21:02:20;27.40;49.30
1329;DHT22;658;48.820;9.354;2022-08-02T21:06:20;27.40;49.40
1329;DHT22;658;48.820;9.354;2022-08-02T21:10:21;27.40;49.50
1329;DHT22;658;48.820;9.354;2022-08-02T21:14:22;27.40;49.50
1329;DHT22;658;48.820;9.354;2022-08-02T21:18:22;27.30;49.50
1329;DHT22;658;48.820;9.354;2022-08-02T21:22:23;27.30;49.60
1329;DHT22;658;48.820;9.354;2022-08-02T21:26:24;27.30;49.70
1329;DHT22;658;48.820;9.354;2022-08-02T21:30:25;27.30;49.80
1329;DHT22;658;48.820;9.354;2022-08-02T21:34:25;27.30;49.80
1329;DHT22;658;48.820;9.354;2022-08-02T21:38:26;27.20;49.80
1329;DHT22;658;48.820;9.354;2022-08-02T21:42:28;27.20;49.80
1329;DHT22;658;48.820;9.354;2022-08-02T21:46:28;27.20;49.80
1329;DHT22;658;48.820;9.354;2022-08-02T21:50:29;27.20;49.90
1329;DHT22;658;48.820;9.354;2022-08-02T21:54:30;27.20;50.00
1329;DHT22;658;48.820;9.354;2022-08-02T21:58:30;27.20;50.10
1329;DHT22;658;48.820;9.354;2022-08-02T22:02:31;27.10;50.10
1329;DHT22;658;48.820;9.354;2022-08-02T22:06:31;27.10;50.10
1329;DHT22;658;48.820;9.354;2022-08-02T22:10:33;27.10;50.10
1329;DHT22;658;48.820;9.354;2022-08-02T22:14:54;27.10;50.20
1329;DHT22;658;48.820;9.354;2022-08-02T22:18:55;27.10;50.20
1329;DHT22;658;48.820;9.354;2022-08-02T22:22:57;27.00;50.20
1329;DHT22;658;48.820;9.354;2022-08-02T22:26:58;27.00;50.20
1329;DHT22;658;48.820;9.354;2022-08-02T22:30:58;27.00;50.30
1329;DHT22;658;48.820;9.354;2022-08-02T22:35:04;27.00;50.30
1329;DHT22;658;48.820;9.354;2022-08-02T22:39:07;27.00;50.30
1329;DHT22;658;48.820;9.354;2022-08-02T22:43:08;27.00;50.30
1329;DHT22;658;48.820;9.354;2022-08-02T22:47:09;27.00;50.40
1329;DHT22;658;48.820;9.354;2022-08-02T22:51:10;27.00;50.50
1329;DHT22;658;48.820;9.354;2022-08-02T22:55:10;27.00;51.00
1329;DHT22;658;48.820;9.354;2022-08-02T22:59:11;27.00;50.40
1329;DHT22;658;48.820;9.354;2022-08-02T23:03:12;26.90;50.30
1329;DHT22;658;48.820;9.354;2022-08-02T23:07:13;26.90;50.30
1329;DHT22;658;48.820;9.354;2022-08-02T23:11:13;26.90;50.40
1329;DHT22;658;48.820;9.354;2022-08-02T23:15:14;26.90;50.40
1329;DHT22;658;48.820;9.354;2022-08-02T23:19:14;26.90;50.40
1329;DHT22;658;48.820;9.354;2022-08-02T23:23:33;26.90;50.50
1329;DHT22;658;48.820;9.354;2022-08-02T23:27:34;26.90;50.50
1329;DHT22;658;48.820;9.354;2022-08-02T23:31:36;26.90;50.60
1329;DHT22;658;48.820;9.354;2022-08-02T23:35:36;26.80;50.50
1329;DHT22;658;48.820;9.354;2022-08-02T23:39:37;26.80;50.50
1329;DHT22;658;48.820;9.354;2022-08-02T23:43:38;26.80;51.10
1329;DHT22;658;48.820;9.354;2022-08-02T23:47:38;26.80;50.60
1329;DHT22;658;48.820;9.354;2022-08-02T23:51:39;26.80;50.70
1329;DHT22;658;48.820;9.354;2022-08-02T23:55:39;26.80;50.70
1329;DHT22;658;48.820;9.354;2022-08-02T23:59:40;26.80;50.70
